createdAt,value
2023-11-09T00:01:42.891Z,97036.59
2023-11-09T00:03:51.678Z,97039.56
2023-11-09T00:05:59.752Z,97039.56
2023-11-09T00:08:08.331Z,97030.69
2023-11-09T00:10:16.592Z,97025.56
2023-11-09T00:12:24.483Z,97016.94
2023-11-09T00:14:29.911Z,97018.00
2023-11-09T00:16:38.196Z,97013.50
2023-11-09T00:18:46.324Z,97003.84
2023-11-09T00:20:55.005Z,97002.34
2023-11-09T00:23:00.570Z,96996.44
2023-11-09T00:25:09.797Z,96992.22
2023-11-09T00:27:21.587Z,96987.97
2023-11-09T00:29:29.723Z,96987.81
2023-11-09T00:31:38.446Z,96982.50
2023-11-09T00:33:49.212Z,96979.22
2023-11-09T00:35:57.704Z,96982.78
2023-11-09T00:38:07.765Z,96979.81
2023-11-09T00:40:16.472Z,96979.22
2023-11-09T00:42:24.754Z,96983.59
2023-11-09T00:44:33.221Z,96987.28
2023-11-09T00:46:41.689Z,96982.16
2023-11-09T00:48:52.736Z,96985.78
2023-11-09T00:51:01.920Z,96978.59
2023-11-09T00:53:11.322Z,96970.03
2023-11-09T00:55:20.579Z,96963.06
2023-11-09T00:57:33.023Z,96972.44
2023-11-09T00:59:45.154Z,96975.91
2023-11-09T01:01:54.564Z,96968.50
2023-11-09T01:04:07.079Z,96967.66
2023-11-09T01:06:15.204Z,96965.25
2023-11-09T01:08:22.283Z,96963.75
2023-11-09T01:10:30.242Z,96962.91
2023-11-09T01:12:38.331Z,96975.97
2023-11-09T01:14:47.186Z,96970.84
2023-11-09T01:16:55.353Z,96973.34
2023-11-09T01:19:06.453Z,96971.47
2023-11-09T01:21:14.553Z,96977.56
2023-11-09T01:23:23.089Z,96972.19
2023-11-09T01:25:31.119Z,96968.72
2023-11-09T01:27:39.041Z,96972.91
2023-11-09T01:29:47.270Z,96969.66
2023-11-09T01:31:56.199Z,96970.44
2023-11-09T01:34:12.604Z,96970.44
2023-11-09T01:36:23.109Z,96975.78
2023-11-09T01:38:31.995Z,96965.88
2023-11-09T01:40:40.904Z,96965.25
2023-11-09T01:42:49.582Z,96962.53
2023-11-09T01:44:57.680Z,96952.28
2023-11-09T01:47:06.541Z,96949.50
2023-11-09T01:49:18.591Z,96947.66
2023-11-09T01:51:27.005Z,96941.16
2023-11-09T01:53:32.811Z,96939.38
2023-11-09T01:55:40.779Z,96946.00
2023-11-09T01:57:49.432Z,96929.31
2023-11-09T01:59:59.564Z,96931.09
2023-11-09T02:02:08.494Z,96925.91
2023-11-09T02:04:20.404Z,96919.31
2023-11-09T02:06:28.758Z,96918.56
2023-11-09T02:08:37.026Z,96918.25
2023-11-09T02:10:45.491Z,96915.63
2023-11-09T02:12:51.324Z,96909.13
2023-11-09T02:14:59.445Z,96912.94
2023-11-09T02:17:10.246Z,96908.53
2023-11-09T02:19:26.575Z,96908.25
2023-11-09T02:21:38.857Z,96910.34
2023-11-09T02:23:49.003Z,96913.09
2023-11-09T02:26:00.747Z,96914.88
2023-11-09T02:28:11.421Z,96918.03
2023-11-09T02:30:19.512Z,96912.16
2023-11-09T02:32:27.751Z,96908.06
2023-11-09T02:34:38.821Z,96900.28
2023-11-09T02:36:46.982Z,96913.63
2023-11-09T02:38:55.495Z,96917.69
2023-11-09T02:41:07.505Z,96908.22
2023-11-09T02:43:15.575Z,96907.06
2023-11-09T02:45:23.584Z,96912.41
2023-11-09T02:47:33.227Z,96903.75
2023-11-09T02:49:42.468Z,96899.19
2023-11-09T02:51:50.753Z,96899.88
2023-11-09T02:53:59.198Z,96895.47
2023-11-09T02:56:11.289Z,96889.28
2023-11-09T02:58:19.311Z,96875.75
2023-11-09T03:00:28.872Z,96878.38
2023-11-09T03:02:38.171Z,96876.47
2023-11-09T03:04:46.466Z,96872.19
2023-11-09T03:06:54.680Z,96883.56
2023-11-09T03:09:04.575Z,96882.81
2023-11-09T03:11:15.433Z,96885.34
2023-11-09T03:13:23.410Z,96885.44
2023-11-09T03:15:31.441Z,96878.47
2023-11-09T03:17:40.250Z,96881.25
2023-11-09T03:19:49.758Z,96878.47
2023-11-09T03:21:57.812Z,96883.34
2023-11-09T03:24:03.333Z,96881.88
2023-11-09T03:26:11.242Z,96880.25
2023-11-09T03:28:22.349Z,96871.47
2023-11-09T03:30:31.715Z,96863.81
2023-11-09T03:32:39.825Z,96858.28
2023-11-09T03:34:47.844Z,96867.72
2023-11-09T03:36:56.926Z,96864.31
2023-11-09T03:39:05.266Z,96867.78
2023-11-09T03:41:14.581Z,96862.63
2023-11-09T03:43:25.445Z,96869.97
2023-11-09T03:45:33.868Z,96864.81
2023-11-09T03:47:39.751Z,96864.84
2023-11-09T03:49:48.959Z,96856.13
2023-11-09T03:51:56.968Z,96862.22
2023-11-09T03:54:05.237Z,96854.53
2023-11-09T03:56:11.224Z,96866.41
2023-11-09T03:58:19.335Z,96846.69
2023-11-09T04:00:30.298Z,96863.84
2023-11-09T04:02:39.610Z,96855.28
2023-11-09T04:04:49.252Z,96845.72
2023-11-09T04:06:59.735Z,96841.84
2023-11-09T04:09:10.872Z,96840.22
2023-11-09T04:11:18.965Z,96843.38
2023-11-09T04:13:27.329Z,96835.03
2023-11-09T04:15:41.712Z,96835.19
2023-11-09T04:17:50.013Z,96829.31
2023-11-09T04:19:58.228Z,96825.00
2023-11-09T04:22:07.102Z,96827.94
2023-11-09T04:24:15.408Z,96825.84
2023-11-09T04:26:24.349Z,96829.31
2023-11-09T04:28:34.421Z,96827.84
2023-11-09T04:30:45.197Z,96830.34
2023-11-09T04:32:59.343Z,96818.19
2023-11-09T04:35:05.821Z,96820.06
2023-11-09T04:37:14.804Z,96816.34
2023-11-09T04:39:29.624Z,96821.91
2023-11-09T04:41:38.097Z,96822.00
2023-11-09T04:43:47.550Z,96818.50
2023-11-09T04:46:06.867Z,96819.81
2023-11-09T04:48:21.654Z,96823.13
2023-11-09T04:50:32.987Z,96822.06
2023-11-09T04:52:45.877Z,96830.75
2023-11-09T04:54:58.783Z,96833.69
2023-11-09T04:57:39.513Z,96822.56
2023-11-09T05:00:00.139Z,96824.03
2023-11-09T05:02:23.375Z,96818.19
2023-11-09T05:04:44.255Z,96821.25
2023-11-09T05:06:56.777Z,96807.84
2023-11-09T05:09:05.851Z,96817.34
2023-11-09T05:11:16.035Z,96808.88
2023-11-09T05:13:24.130Z,96814.66
2023-11-09T05:15:32.408Z,96817.34
2023-11-09T05:17:43.385Z,96814.69
2023-11-09T05:19:49.672Z,96804.66
2023-11-09T05:21:57.868Z,96810.59
2023-11-09T05:24:06.519Z,96802.63
2023-11-09T05:26:15.070Z,96811.84
2023-11-09T05:28:23.996Z,96802.75
2023-11-09T05:30:32.448Z,96786.22
2023-11-09T05:32:46.023Z,96787.31
2023-11-09T05:34:54.510Z,96789.50
2023-11-09T05:37:04.539Z,96790.34
2023-11-09T05:39:15.563Z,96783.47
2023-11-09T05:41:26.473Z,96793.00
2023-11-09T05:43:34.952Z,96787.41
2023-11-09T05:45:45.562Z,96789.41
2023-11-09T05:47:58.192Z,96782.66
2023-11-09T05:50:06.673Z,96782.03
2023-11-09T05:52:17.761Z,96790.25
2023-11-09T05:54:26.233Z,96780.84
2023-11-09T05:56:34.479Z,96770.75
2023-11-09T05:58:42.751Z,96788.66
2023-11-09T06:00:51.203Z,96785.59
2023-11-09T06:03:02.519Z,96781.97
2023-11-09T06:05:11.492Z,96786.66
2023-11-09T06:07:21.589Z,96785.16
2023-11-09T06:09:30.624Z,96780.00
2023-11-09T06:11:38.919Z,96772.09
2023-11-09T06:13:47.841Z,96781.88
2023-11-09T06:15:56.860Z,96781.38
2023-11-09T06:18:07.758Z,96783.91
2023-11-09T06:20:18.141Z,96783.25
2023-11-09T06:22:26.752Z,96795.03
2023-11-09T06:24:35.322Z,96789.63
2023-11-09T06:26:43.880Z,96799.47
2023-11-09T06:28:52.730Z,96795.47
2023-11-09T06:31:05.669Z,96789.19
2023-11-09T06:33:16.751Z,96804.03
2023-11-09T06:35:25.225Z,96789.00
2023-11-09T06:37:34.371Z,96790.75
2023-11-09T06:39:47.810Z,96798.38
2023-11-09T06:41:56.041Z,96787.44
2023-11-09T06:44:04.241Z,96790.66
2023-11-09T06:46:12.574Z,96793.44
2023-11-09T06:48:23.360Z,96792.19
2023-11-09T06:50:31.712Z,96796.41
2023-11-09T06:52:41.046Z,96805.09
2023-11-09T06:54:50.132Z,96791.16
2023-11-09T06:56:58.600Z,96787.94
2023-11-09T06:59:07.555Z,96796.06
2023-11-09T07:01:15.897Z,96794.31
2023-11-09T07:03:26.795Z,96792.06
2023-11-09T07:05:35.061Z,96799.56
2023-11-09T07:07:44.320Z,96795.81
2023-11-09T07:09:53.256Z,96797.69
2023-11-09T07:12:01.711Z,96799.69
2023-11-09T07:14:09.987Z,96797.38
2023-11-09T07:16:18.332Z,96800.56
2023-11-09T07:18:29.480Z,96806.41
2023-11-09T07:20:37.755Z,96805.50
2023-11-09T07:22:46.281Z,96790.34
2023-11-09T07:25:07.928Z,96800.34
2023-11-09T07:27:21.441Z,96803.28
2023-11-09T07:29:29.999Z,96817.31
2023-11-09T07:31:38.485Z,96820.66
2023-11-09T07:33:51.503Z,96809.81
2023-11-09T07:36:00.749Z,96807.25
2023-11-09T07:38:09.055Z,96840.19
2023-11-09T07:40:17.750Z,96825.25
2023-11-09T07:42:26.536Z,96818.19
2023-11-09T07:44:35.769Z,96839.97
2023-11-09T07:46:45.467Z,96825.38
2023-11-09T07:48:59.127Z,96845.53
2023-11-09T07:51:08.577Z,96834.59
2023-11-09T07:53:16.997Z,96835.25
2023-11-09T07:55:25.028Z,96834.19
2023-11-09T07:57:33.265Z,96833.66
2023-11-09T07:59:41.543Z,96845.09
2023-11-09T08:01:51.074Z,96839.81
2023-11-09T08:04:02.211Z,96838.69
2023-11-09T08:06:10.867Z,96836.94
2023-11-09T08:08:20.570Z,96843.63
2023-11-09T08:10:29.575Z,96837.50
2023-11-09T08:12:38.099Z,96831.53
2023-11-09T08:14:46.560Z,96822.81
2023-11-09T08:16:54.648Z,96824.19
2023-11-09T08:19:05.853Z,96831.31
2023-11-09T08:21:14.300Z,96829.75
2023-11-09T08:23:22.662Z,96833.75
2023-11-09T08:25:31.701Z,96836.41
2023-11-09T08:27:42.364Z,96838.94
2023-11-09T08:29:53.116Z,96834.38
2023-11-09T08:32:04.045Z,96826.66
2023-11-09T08:34:15.577Z,96823.31
2023-11-09T08:36:23.783Z,96822.38
2023-11-09T08:38:34.861Z,96826.84
2023-11-09T08:40:43.916Z,96835.63
2023-11-09T08:42:55.089Z,96836.47
2023-11-09T08:45:05.465Z,96844.28
2023-11-09T08:47:14.135Z,96841.88
2023-11-09T08:49:25.728Z,96852.59
2023-11-09T08:51:35.784Z,96855.03
2023-11-09T08:53:44.680Z,96847.81
2023-11-09T08:55:53.121Z,96846.56
2023-11-09T08:57:59.620Z,96855.44
2023-11-09T09:00:13.309Z,96853.97
2023-11-09T09:02:22.348Z,96856.59
2023-11-09T09:04:33.423Z,96849.09
2023-11-09T09:06:39.567Z,96850.47
2023-11-09T09:08:49.492Z,96842.31
2023-11-09T09:10:59.447Z,96836.09
2023-11-09T09:13:08.949Z,96833.75
2023-11-09T09:15:17.611Z,96837.03
2023-11-09T09:17:27.192Z,96831.63
2023-11-09T09:19:38.529Z,96835.31
2023-11-09T09:21:46.781Z,96842.53
2023-11-09T09:23:55.013Z,96835.56
2023-11-09T09:26:14.910Z,96829.59
2023-11-09T09:28:24.707Z,96833.31
2023-11-09T09:30:30.664Z,96833.00
2023-11-09T09:32:39.280Z,96833.75
2023-11-09T09:34:50.870Z,96827.50
2023-11-09T09:37:00.174Z,96826.22
2023-11-09T09:39:10.234Z,96819.97
2023-11-09T09:41:20.974Z,96820.78
2023-11-09T09:43:29.300Z,96826.06
2023-11-09T09:45:38.389Z,96829.09
2023-11-09T09:47:50.133Z,96827.38
2023-11-09T09:50:01.971Z,96816.16
2023-11-09T09:52:11.234Z,96817.41
2023-11-09T09:54:22.350Z,96814.41
2023-11-09T09:56:30.792Z,96814.69
2023-11-09T09:58:39.950Z,96811.53
2023-11-09T10:00:50.379Z,96806.31
2023-11-09T10:03:00.878Z,96802.00
2023-11-09T10:05:15.640Z,96796.22
2023-11-09T10:07:24.301Z,96792.72
2023-11-09T10:09:32.917Z,96786.03
2023-11-09T10:11:41.886Z,96785.28
2023-11-09T10:13:50.950Z,96785.13
2023-11-09T10:16:01.119Z,96788.59
2023-11-09T10:18:11.302Z,96776.09
2023-11-09T10:20:20.110Z,96787.59
2023-11-09T10:22:30.021Z,96783.88
2023-11-09T10:24:39.859Z,96782.91
2023-11-09T10:26:49.034Z,96780.47
2023-11-09T10:29:03.663Z,96775.56
2023-11-09T10:31:13.914Z,96779.66
2023-11-09T10:33:23.385Z,96777.94
2023-11-09T10:35:32.605Z,96782.53
2023-11-09T10:37:42.132Z,96782.38
2023-11-09T10:39:54.425Z,96773.19
2023-11-09T10:42:05.848Z,96770.25
2023-11-09T10:44:15.560Z,96772.72
2023-11-09T10:46:22.221Z,96765.59
2023-11-09T10:48:33.656Z,96771.84
2023-11-09T10:50:49.150Z,96770.16
2023-11-09T10:53:00.381Z,96771.34
2023-11-09T10:55:11.453Z,96774.47
2023-11-09T10:57:20.369Z,96776.00
2023-11-09T10:59:29.776Z,96773.84
2023-11-09T11:01:40.394Z,96774.78
2023-11-09T11:03:56.338Z,96767.78
2023-11-09T11:06:13.426Z,96757.44
2023-11-09T11:08:28.258Z,96759.47
2023-11-09T11:10:37.355Z,96758.63
2023-11-09T11:12:49.410Z,96753.69
2023-11-09T11:14:59.089Z,96749.25
2023-11-09T11:17:20.185Z,96748.53
2023-11-09T11:20:00.826Z,96737.81
2023-11-09T11:22:32.064Z,96742.25
2023-11-09T11:25:16.473Z,96742.28
2023-11-09T11:27:40.993Z,96749.13
2023-11-09T11:29:52.491Z,96737.03
2023-11-09T11:32:07.620Z,96738.84
2023-11-09T11:34:50.801Z,96721.28
2023-11-09T11:37:00.907Z,96728.84
2023-11-09T11:39:37.962Z,96732.81
2023-11-09T11:41:47.620Z,96727.19
2023-11-09T11:43:58.407Z,96735.06
2023-11-09T11:46:13.550Z,96736.22
2023-11-09T11:48:26.846Z,96728.50
2023-11-09T11:50:37.785Z,96734.53
2023-11-09T11:52:52.237Z,96723.31
2023-11-09T11:55:06.499Z,96727.78
2023-11-09T11:57:16.992Z,96725.22
2023-11-09T11:59:31.076Z,96723.09
2023-11-09T12:01:42.075Z,96719.16
2023-11-09T12:03:55.355Z,96706.94
2023-11-09T12:06:18.038Z,96712.75
2023-11-09T12:08:32.760Z,96710.09
2023-11-09T12:10:44.698Z,96706.84
2023-11-09T12:12:59.510Z,96707.63
2023-11-09T12:15:09.454Z,96705.53
2023-11-09T12:17:18.303Z,96701.75
2023-11-09T12:19:26.798Z,96700.47
2023-11-09T12:21:36.839Z,96695.69
2023-11-09T12:23:45.054Z,96699.53
2023-11-09T12:25:57.160Z,96687.88
2023-11-09T12:28:05.729Z,96689.56
2023-11-09T12:30:18.186Z,96689.44
2023-11-09T12:32:27.791Z,96689.19
2023-11-09T12:34:36.876Z,96692.41
2023-11-09T12:36:48.326Z,96688.03
2023-11-09T12:38:58.124Z,96689.63
2023-11-09T12:41:09.635Z,96690.03
2023-11-09T12:43:15.312Z,96688.22
2023-11-09T12:45:23.793Z,96688.19
2023-11-09T12:47:35.166Z,96692.00
2023-11-09T12:49:42.541Z,96688.91
2023-11-09T12:51:52.248Z,96692.41
2023-11-09T12:54:01.747Z,96687.78
2023-11-09T12:56:20.419Z,96690.75
2023-11-09T12:58:37.563Z,96687.34
2023-11-09T13:00:48.706Z,96684.94
2023-11-09T13:02:58.544Z,96686.09
2023-11-09T13:05:04.666Z,96693.94
2023-11-09T13:07:14.881Z,96685.94
2023-11-09T13:09:35.408Z,96690.16
2023-11-09T13:11:48.033Z,96680.59
2023-11-09T13:14:00.226Z,96675.41
2023-11-09T13:16:15.737Z,96665.88
2023-11-09T13:18:29.655Z,96665.59
2023-11-09T13:20:40.997Z,96666.03
2023-11-09T13:22:46.855Z,96662.22
2023-11-09T13:24:55.803Z,96670.06
2023-11-09T13:27:13.503Z,96649.16
2023-11-09T13:29:24.316Z,96661.09
2023-11-09T13:31:33.058Z,96665.72
2023-11-09T13:33:43.310Z,96667.53
2023-11-09T13:35:54.221Z,96655.31
2023-11-09T13:38:09.059Z,96654.63
2023-11-09T13:40:36.540Z,96658.78
2023-11-09T13:42:47.919Z,96657.81
2023-11-09T13:44:58.144Z,96663.47
2023-11-09T13:47:09.545Z,96659.78
2023-11-09T13:49:20.833Z,96655.03
2023-11-09T13:51:30.356Z,96660.06
2023-11-09T13:53:56.513Z,96659.53
2023-11-09T13:56:27.503Z,96663.66
2023-11-09T13:58:38.251Z,96665.38
2023-11-09T14:00:46.668Z,96666.75
2023-11-09T14:02:55.576Z,96670.53
2023-11-09T14:05:11.764Z,96667.81
2023-11-09T14:07:22.024Z,96667.69
2023-11-09T14:09:36.979Z,96660.09
2023-11-09T14:11:58.715Z,96660.34
2023-11-09T14:14:12.117Z,96655.13
2023-11-09T14:16:24.902Z,96654.41
2023-11-09T14:18:49.002Z,96666.25
2023-11-09T14:21:14.480Z,96655.81
2023-11-09T14:23:25.684Z,96656.22
2023-11-09T14:25:36.914Z,96659.31
2023-11-09T14:27:45.418Z,96654.50
2023-11-09T14:29:59.761Z,96660.69
2023-11-09T14:32:09.900Z,96657.97
2023-11-09T14:34:15.958Z,96656.09
2023-11-09T14:36:26.666Z,96661.47
2023-11-09T14:38:35.426Z,96665.44
2023-11-09T14:40:49.100Z,96665.13
2023-11-09T14:43:07.279Z,96667.06
2023-11-09T14:45:24.314Z,96646.28
2023-11-09T14:47:43.329Z,96659.81
2023-11-09T14:49:54.868Z,96651.88
2023-11-09T14:52:07.893Z,96650.59
2023-11-09T14:54:22.325Z,96655.22
2023-11-09T14:56:30.897Z,96654.69
2023-11-09T14:58:39.524Z,96667.03
2023-11-09T15:00:52.699Z,96667.53
2023-11-09T15:03:01.224Z,96664.09
2023-11-09T15:05:12.671Z,96665.00
2023-11-09T15:07:21.858Z,96664.75
2023-11-09T15:09:33.740Z,96656.16
2023-11-09T15:11:42.383Z,96661.00
2023-11-09T15:13:51.080Z,96651.59
2023-11-09T15:16:04.428Z,96646.34
2023-11-09T15:18:13.231Z,96631.84
2023-11-09T15:20:23.672Z,96632.25
2023-11-09T15:22:34.206Z,96628.53
2023-11-09T15:24:45.036Z,96621.78
2023-11-09T15:26:54.325Z,96620.47
2023-11-09T15:29:02.902Z,96617.78
2023-11-09T15:31:14.308Z,96606.94
2023-11-09T15:33:22.784Z,96603.94
2023-11-09T15:35:31.570Z,96609.84
2023-11-09T15:37:42.026Z,96601.88
2023-11-09T15:40:12.777Z,96617.31
2023-11-09T15:42:19.457Z,96602.84
2023-11-09T15:44:28.352Z,96596.69
2023-11-09T15:46:39.915Z,96608.16
2023-11-09T15:48:48.014Z,96602.00
2023-11-09T15:50:56.653Z,96595.59
2023-11-09T15:53:04.946Z,96596.69
2023-11-09T15:55:15.445Z,96582.94
2023-11-09T15:57:23.866Z,96594.75
2023-11-09T15:59:32.876Z,96594.63
2023-11-09T16:01:45.091Z,96601.16
2023-11-09T16:03:55.470Z,96592.09
2023-11-09T16:06:03.905Z,96600.69
2023-11-09T16:08:13.570Z,96606.13
2023-11-09T16:10:21.364Z,96602.00
2023-11-09T16:12:30.343Z,96600.31
2023-11-09T16:14:38.894Z,96594.16
2023-11-09T16:16:50.161Z,96590.44
2023-11-09T16:18:58.824Z,96592.25
2023-11-09T16:21:07.127Z,96592.09
2023-11-09T16:23:17.687Z,96588.75
2023-11-09T16:25:28.463Z,96594.88
2023-11-09T16:27:38.794Z,96594.50
2023-11-09T16:29:49.108Z,96594.00
2023-11-09T16:32:00.518Z,96586.03
2023-11-09T16:34:11.504Z,96579.31
2023-11-09T16:36:19.774Z,96585.22
2023-11-09T16:38:28.216Z,96602.69
2023-11-09T16:40:36.835Z,96586.84
2023-11-09T16:42:45.676Z,96579.63
2023-11-09T16:44:53.964Z,96582.38
2023-11-09T16:47:06.277Z,96585.13
2023-11-09T16:49:19.914Z,96577.41
2023-11-09T16:51:29.728Z,96582.00
2023-11-09T16:53:36.021Z,96583.09
2023-11-09T16:55:44.850Z,96578.16
2023-11-09T16:57:53.211Z,96586.94
2023-11-09T17:00:01.913Z,96579.91
2023-11-09T17:02:14.447Z,96575.34
2023-11-09T17:04:22.682Z,96586.78
2023-11-09T17:06:30.938Z,96582.69
2023-11-09T17:08:40.443Z,96585.66
2023-11-09T17:10:48.628Z,96583.75
2023-11-09T17:12:57.050Z,96580.59
2023-11-09T17:15:08.712Z,96574.78
2023-11-09T17:17:20.476Z,96575.38
2023-11-09T17:19:28.990Z,96575.03
2023-11-09T17:21:37.501Z,96573.56
2023-11-09T17:23:45.623Z,96573.84
2023-11-09T17:25:54.522Z,96576.63
2023-11-09T17:28:04.297Z,96579.13
2023-11-09T17:30:13.945Z,96577.44
2023-11-09T17:32:25.366Z,96569.88
2023-11-09T17:34:33.731Z,96580.13
2023-11-09T17:36:43.019Z,96589.41
2023-11-09T17:38:51.625Z,96591.44
2023-11-09T17:41:01.836Z,96591.09
2023-11-09T17:43:10.319Z,96575.69
2023-11-09T17:45:19.334Z,96589.78
2023-11-09T17:47:31.946Z,96594.72
2023-11-09T17:49:40.520Z,96579.38
2023-11-09T17:51:48.920Z,96581.94
2023-11-09T17:53:54.531Z,96586.00
2023-11-09T17:56:03.169Z,96597.56
2023-11-09T17:58:13.207Z,96597.59
2023-11-09T18:00:22.410Z,96594.22
2023-11-09T18:02:33.896Z,96580.63
2023-11-09T18:04:42.331Z,96579.38
2023-11-09T18:06:50.693Z,96572.28
2023-11-09T18:08:59.594Z,96564.91
2023-11-09T18:11:08.178Z,96562.84
2023-11-09T18:13:18.122Z,96558.47
2023-11-09T18:15:27.226Z,96574.13
2023-11-09T18:17:38.346Z,96580.00
2023-11-09T18:19:46.714Z,96576.97
2023-11-09T18:21:57.360Z,96577.06
2023-11-09T18:24:05.692Z,96559.25
2023-11-09T18:26:14.627Z,96563.72
2023-11-09T18:28:23.065Z,96565.69
2023-11-09T18:30:31.437Z,96564.44
2023-11-09T18:32:42.487Z,96548.06
2023-11-09T18:34:51.947Z,96546.50
2023-11-09T18:37:00.415Z,96543.09
2023-11-09T18:39:08.952Z,96528.75
2023-11-09T18:41:18.281Z,96531.00
2023-11-09T18:43:26.781Z,96527.63
2023-11-09T18:45:35.134Z,96515.91
2023-11-09T18:47:46.567Z,96511.44
2023-11-09T18:52:12.975Z,96514.16
2023-11-09T18:54:21.884Z,96511.72
2023-11-09T18:56:30.777Z,96515.00
2023-11-09T18:58:39.118Z,96507.06
2023-11-09T19:00:47.809Z,96489.84
2023-11-09T19:05:11.107Z,96495.50
2023-11-09T19:07:20.282Z,96494.38
2023-11-09T19:09:29.103Z,96502.09
2023-11-09T19:11:38.710Z,96493.81
2023-11-09T19:13:45.698Z,96502.16
2023-11-09T19:15:55.152Z,96494.44
2023-11-09T19:18:06.241Z,96496.47
2023-11-09T19:20:14.578Z,96496.91
2023-11-09T19:24:32.887Z,96497.94
2023-11-09T19:26:44.119Z,96498.47
2023-11-09T19:28:49.980Z,96505.03
2023-11-09T19:30:59.776Z,96506.91
2023-11-09T19:33:11.235Z,96501.16
2023-11-09T19:35:19.634Z,96495.16
2023-11-09T19:37:25.209Z,96494.41
2023-11-09T19:39:33.692Z,96488.19
2023-11-09T19:41:41.806Z,96479.75
2023-11-09T19:43:50.127Z,96482.19
2023-11-09T19:45:58.672Z,96484.75
2023-11-09T19:48:10.964Z,96483.78
2023-11-09T19:50:24.163Z,96478.81
2023-11-09T19:52:32.624Z,96471.72
2023-11-09T19:54:40.958Z,96474.88
2023-11-09T19:56:50.152Z,96475.75
2023-11-09T19:59:00.649Z,96478.19
2023-11-09T20:01:08.968Z,96470.69
2023-11-09T20:03:19.233Z,96471.41
2023-11-09T20:05:30.369Z,96482.50
2023-11-09T20:07:38.509Z,96485.69
2023-11-09T20:09:46.904Z,96489.28
2023-11-09T20:11:55.341Z,96490.63
2023-11-09T20:14:03.722Z,96483.78
2023-11-09T20:16:11.958Z,96485.34
2023-11-09T20:18:20.274Z,96486.84
2023-11-09T20:20:31.870Z,96494.97
2023-11-09T20:22:41.338Z,96493.09
2023-11-09T20:24:51.405Z,96489.19
2023-11-09T20:26:59.712Z,96495.59
2023-11-09T20:29:09.875Z,96498.13
2023-11-09T20:31:18.965Z,96500.88
2023-11-09T20:33:27.740Z,96493.47
2023-11-09T20:35:40.719Z,96494.03
2023-11-09T20:37:49.089Z,96492.25
2023-11-09T20:39:58.883Z,96492.13
2023-11-09T20:42:07.274Z,96486.91
2023-11-09T20:44:20.326Z,96487.75
2023-11-09T20:46:28.933Z,96488.31
2023-11-09T20:48:37.707Z,96489.38
2023-11-09T20:50:48.444Z,96490.63
2023-11-09T20:52:57.464Z,96485.16
2023-11-09T20:55:08.649Z,96486.50
2023-11-09T20:57:15.971Z,96486.31
2023-11-09T20:59:25.147Z,96476.88
2023-11-09T21:01:33.308Z,96474.84
2023-11-09T21:03:44.333Z,96471.69
2023-11-09T21:05:55.352Z,96459.44
2023-11-09T21:08:03.425Z,96463.97
2023-11-09T21:10:16.108Z,96461.78
2023-11-09T21:12:25.463Z,96458.84
2023-11-09T21:14:34.068Z,96454.72
2023-11-09T21:16:42.642Z,96445.13
2023-11-09T21:18:50.860Z,96448.16
2023-11-09T21:21:02.156Z,96443.16
2023-11-09T21:23:10.472Z,96445.81
2023-11-09T21:25:19.469Z,96440.31
2023-11-09T21:27:27.818Z,96430.13
2023-11-09T21:29:37.890Z,96428.56
2023-11-09T21:31:46.224Z,96424.97
2023-11-09T21:33:55.560Z,96420.66
2023-11-09T21:36:06.907Z,96412.31
2023-11-09T21:38:15.765Z,96415.47
2023-11-09T21:40:27.836Z,96410.19
2023-11-09T21:42:36.050Z,96405.50
2023-11-09T21:44:46.691Z,96399.56
2023-11-09T21:46:54.940Z,96392.09
2023-11-09T21:49:03.187Z,96392.94
2023-11-09T21:51:14.211Z,96392.09
2023-11-09T21:53:22.681Z,96397.78
2023-11-09T21:55:31.572Z,96391.13
2023-11-09T21:57:40.024Z,96386.75
2023-11-09T21:59:48.408Z,96384.00
2023-11-09T22:01:56.718Z,96384.41
2023-11-09T22:04:05.989Z,96381.00
2023-11-09T22:06:16.804Z,96390.53
2023-11-09T22:08:25.327Z,96394.00
2023-11-09T22:10:34.385Z,96397.16
2023-11-09T22:12:43.736Z,96391.03
2023-11-09T22:14:52.371Z,96388.25
2023-11-09T22:17:01.158Z,96382.06
2023-11-09T22:19:10.071Z,96384.47
2023-11-09T22:21:23.639Z,96382.13
2023-11-09T22:23:31.905Z,96385.16
2023-11-09T22:25:40.001Z,96383.94
2023-11-09T22:27:48.736Z,96380.31
2023-11-09T22:29:57.161Z,96380.19
2023-11-09T22:32:03.423Z,96380.31
2023-11-09T22:34:12.139Z,96378.00
2023-11-09T22:36:23.801Z,96365.91
2023-11-09T22:38:32.179Z,96374.47
2023-11-09T22:40:41.180Z,96370.03
2023-11-09T22:42:49.364Z,96382.97
2023-11-09T22:44:58.211Z,96376.63
2023-11-09T22:47:07.252Z,96376.13
2023-11-09T22:49:12.914Z,96368.72
2023-11-09T22:51:24.209Z,96376.00
2023-11-09T22:53:29.927Z,96372.69
2023-11-09T22:55:38.293Z,96373.50
2023-11-09T22:57:47.264Z,96371.50
2023-11-09T22:59:56.308Z,96366.59
2023-11-09T23:02:04.949Z,96365.03
2023-11-09T23:04:13.280Z,96367.91
2023-11-09T23:06:24.185Z,96366.13
2023-11-09T23:08:35.736Z,96368.25
2023-11-09T23:10:45.773Z,96362.97
2023-11-09T23:12:54.995Z,96363.31
2023-11-09T23:15:03.448Z,96358.91
2023-11-09T23:17:14.104Z,96355.53
2023-11-09T23:19:22.716Z,96364.44
2023-11-09T23:21:33.690Z,96352.88
2023-11-09T23:23:42.648Z,96351.09
2023-11-09T23:25:51.078Z,96348.81
2023-11-09T23:28:00.536Z,96346.91
2023-11-09T23:30:11.251Z,96353.41
2023-11-09T23:32:20.253Z,96352.44
2023-11-09T23:34:28.561Z,96342.34
2023-11-09T23:36:39.660Z,96332.53
2023-11-09T23:38:48.156Z,96324.31
2023-11-09T23:40:58.641Z,96326.88
2023-11-09T23:43:07.241Z,96333.38
2023-11-09T23:45:16.474Z,96336.50
2023-11-09T23:47:27.311Z,96333.84
2023-11-09T23:49:35.736Z,96337.34
2023-11-09T23:51:51.148Z,96334.56
2023-11-09T23:54:00.059Z,96334.34
2023-11-09T23:56:10.001Z,96333.50
2023-11-09T23:58:18.262Z,96326.88
